createdAt,value
2023-07-05T00:01:27.619Z,99648.80
2023-07-05T00:03:59.352Z,99648.83
2023-07-05T00:06:27.939Z,99649.13
2023-07-05T00:08:56.337Z,99646.86
2023-07-05T00:11:25.004Z,99643.52
2023-07-05T00:14:14.511Z,99643.19
2023-07-05T00:17:03.383Z,99641.67
2023-07-05T00:19:40.900Z,99641.27
2023-07-05T00:22:14.780Z,99637.88
2023-07-05T00:24:45.801Z,99633.24
2023-07-05T00:27:14.904Z,99633.89
2023-07-05T00:29:56.454Z,99635.06
2023-07-05T00:32:25.015Z,99632.70
2023-07-05T00:35:13.896Z,99630.55
2023-07-05T00:37:45.751Z,99631.40
2023-07-05T00:40:21.753Z,99629.91
2023-07-05T00:42:50.337Z,99624.98
2023-07-05T00:45:18.854Z,99625.79
2023-07-05T00:48:09.479Z,99626.77
2023-07-05T00:51:03.264Z,99623.93
2023-07-05T00:53:35.681Z,99621.48
2023-07-05T00:56:49.657Z,99618.42
2023-07-05T00:59:22.712Z,99618.06
2023-07-05T01:04:25.931Z,99617.29
2023-07-05T01:06:57.941Z,99617.14
2023-07-05T01:09:59.915Z,99616.38
2023-07-05T01:12:44.781Z,99614.26
2023-07-05T01:15:44.003Z,99611.92
2023-07-05T01:18:26.845Z,99612.69
2023-07-05T01:21:44.747Z,99608.62
2023-07-05T01:24:16.880Z,99604.27
2023-07-05T01:27:06.569Z,99601.06
2023-07-05T01:30:27.444Z,99596.89
2023-07-05T01:33:05.232Z,99596.39
2023-07-05T01:35:40.839Z,99589.03
2023-07-05T01:38:10.792Z,99587.19
2023-07-05T01:40:51.046Z,99589.01
2023-07-05T01:43:44.419Z,99592.98
2023-07-05T01:46:35.943Z,99592.21
2023-07-05T01:49:33.705Z,99590.66
2023-07-05T01:52:41.099Z,99588.82
2023-07-05T01:55:44.629Z,99586.39
2023-07-05T01:58:20.254Z,99579.37
2023-07-05T02:01:05.159Z,99586.04
2023-07-05T02:03:37.386Z,99585.72
2023-07-05T02:06:13.592Z,99583.34
2023-07-05T02:08:44.660Z,99576.95
2023-07-05T02:11:17.156Z,99575.39
2023-07-05T02:13:48.126Z,99576.48
2023-07-05T02:16:16.741Z,99574.91
2023-07-05T02:18:45.581Z,99570.94
2023-07-05T02:22:25.634Z,99569.17
2023-07-05T02:24:56.907Z,99566.36
2023-07-05T02:27:45.631Z,99563.39
2023-07-05T02:30:44.965Z,99558.42
2023-07-05T02:33:35.773Z,99556.71
2023-07-05T02:36:48.175Z,99554.41
2023-07-05T02:39:17.191Z,99553.73
2023-07-05T02:41:48.028Z,99548.84
2023-07-05T02:44:38.024Z,99546.36
2023-07-05T02:47:27.872Z,99541.55
2023-07-05T02:49:59.353Z,99538.94
2023-07-05T02:52:31.435Z,99532.89
2023-07-05T02:55:27.114Z,99537.61
2023-07-05T02:58:11.952Z,99534.15
2023-07-05T03:00:50.288Z,99525.79
2023-07-05T03:03:33.318Z,99524.35
2023-07-05T03:06:05.708Z,99523.62
2023-07-05T03:08:54.434Z,99521.23
2023-07-05T03:11:43.693Z,99517.61
2023-07-05T03:14:32.868Z,99515.19
2023-07-05T03:17:04.667Z,99517.95
2023-07-05T03:19:58.571Z,99519.02
2023-07-05T03:22:30.799Z,99511.86
2023-07-05T03:25:04.159Z,99511.12
2023-07-05T03:27:55.148Z,99513.28
2023-07-05T03:30:24.714Z,99512.55
2023-07-05T03:33:12.150Z,99511.69
2023-07-05T03:35:43.795Z,99511.15
2023-07-05T03:38:14.311Z,99509.61
2023-07-05T03:41:00.498Z,99509.34
2023-07-05T03:43:38.136Z,99513.27
2023-07-05T03:46:10.333Z,99506.95
2023-07-05T03:48:46.630Z,99503.17
2023-07-05T03:51:20.110Z,99500.42
2023-07-05T03:53:54.928Z,99498.26
2023-07-05T03:56:25.384Z,99498.23
2023-07-05T03:58:54.655Z,99497.27
2023-07-05T04:01:33.736Z,99499.15
2023-07-05T04:04:08.652Z,99497.77
2023-07-05T04:06:47.479Z,99492.02
2023-07-05T04:09:30.691Z,99494.35
2023-07-05T04:11:59.494Z,99488.06
2023-07-05T04:14:34.584Z,99487.18
2023-07-05T04:17:04.228Z,99488.63
2023-07-05T04:19:44.038Z,99485.36
2023-07-05T04:22:18.484Z,99473.05
2023-07-05T04:25:03.167Z,99475.55
2023-07-05T04:27:39.016Z,99473.75
2023-07-05T04:30:09.411Z,99476.06
2023-07-05T04:32:51.180Z,99469.37
2023-07-05T04:35:24.297Z,99466.16
2023-07-05T04:38:08.195Z,99470.33
2023-07-05T04:41:09.991Z,99472.45
2023-07-05T04:43:55.940Z,99470.64
2023-07-05T04:46:31.042Z,99468.87
2023-07-05T04:48:59.695Z,99462.08
2023-07-05T04:51:34.232Z,99463.48
2023-07-05T04:54:02.806Z,99460.42
2023-07-05T04:56:31.366Z,99459.45
2023-07-05T04:59:01.028Z,99459.23
2023-07-05T05:01:37.563Z,99456.27
2023-07-05T05:04:12.620Z,99451.08
2023-07-05T05:06:45.403Z,99447.50
2023-07-05T05:09:14.720Z,99443.83
2023-07-05T05:11:54.089Z,99440.16
2023-07-05T05:14:31.948Z,99437.13
2023-07-05T05:17:01.095Z,99432.23
2023-07-05T05:20:04.921Z,99439.48
2023-07-05T05:22:36.302Z,99434.63
2023-07-05T05:25:04.862Z,99433.28
2023-07-05T05:27:40.046Z,99428.90
2023-07-05T05:30:16.551Z,99427.34
2023-07-05T05:33:14.372Z,99433.23
2023-07-05T05:35:52.316Z,99427.59
2023-07-05T05:38:50.115Z,99424.95
2023-07-05T05:41:24.692Z,99424.46
2023-07-05T05:44:36.374Z,99427.20
2023-07-05T05:47:26.365Z,99422.34
2023-07-05T05:50:37.103Z,99416.65
2023-07-05T05:53:14.778Z,99413.49
2023-07-05T05:56:11.398Z,99411.21
2023-07-05T05:58:46.100Z,99404.85
2023-07-05T06:06:06.483Z,99403.04
2023-07-05T06:08:51.027Z,99402.55
2023-07-05T06:11:26.915Z,99404.14
2023-07-05T06:14:02.846Z,99398.02
2023-07-05T06:16:34.309Z,99399.90
2023-07-05T06:19:14.602Z,99392.52
2023-07-05T06:21:43.356Z,99391.63
2023-07-05T06:24:17.855Z,99385.89
2023-07-05T06:26:50.158Z,99383.50
2023-07-05T06:29:26.187Z,99378.61
2023-07-05T06:32:17.968Z,99375.08
2023-07-05T06:34:46.824Z,99370.98
2023-07-05T06:37:16.936Z,99374.07
2023-07-05T06:39:45.745Z,99372.20
2023-07-05T06:42:22.502Z,99367.95
2023-07-05T06:45:00.932Z,99360.80
2023-07-05T06:47:35.295Z,99364.16
2023-07-05T06:50:10.459Z,99354.08
2023-07-05T06:52:43.514Z,99354.20
2023-07-05T06:55:21.317Z,99349.73
2023-07-05T06:57:50.053Z,99347.70
2023-07-05T07:00:59.294Z,99343.27
2023-07-05T07:03:30.358Z,99338.48
2023-07-05T07:06:00.499Z,99336.61
2023-07-05T07:08:35.263Z,99331.77
2023-07-05T07:11:05.605Z,99326.19
2023-07-05T07:13:38.816Z,99329.23
2023-07-05T07:16:13.204Z,99327.56
2023-07-05T07:18:51.948Z,99326.27
2023-07-05T07:21:20.873Z,99323.94
2023-07-05T07:23:50.247Z,99319.61
2023-07-05T07:26:24.635Z,99314.52
2023-07-05T07:28:55.694Z,99304.77
2023-07-05T07:31:29.317Z,99310.56
2023-07-05T07:34:09.245Z,99303.45
2023-07-05T07:36:38.420Z,99293.34
2023-07-05T07:39:18.260Z,99289.13
2023-07-05T07:41:55.749Z,99286.42
2023-07-05T07:44:24.709Z,99288.80
2023-07-05T07:46:53.971Z,99282.89
2023-07-05T07:49:25.569Z,99281.11
2023-07-05T07:51:54.384Z,99279.28
2023-07-05T07:54:27.711Z,99274.27
2023-07-05T07:56:58.183Z,99277.66
2023-07-05T07:59:27.085Z,99277.20
2023-07-05T08:01:55.460Z,99276.45
2023-07-05T08:04:24.534Z,99269.79
2023-07-05T08:06:56.829Z,99267.05
2023-07-05T08:09:30.839Z,99268.83
2023-07-05T08:12:02.052Z,99271.10
2023-07-05T08:14:31.469Z,99270.69
2023-07-05T08:17:00.320Z,99270.72
2023-07-05T08:19:29.225Z,99268.27
2023-07-05T08:21:57.928Z,99267.57
2023-07-05T08:24:27.587Z,99262.59
2023-07-05T08:27:00.164Z,99263.61
2023-07-05T08:29:29.096Z,99259.40
2023-07-05T08:31:58.713Z,99262.77
2023-07-05T08:34:27.461Z,99265.46
2023-07-05T08:36:56.022Z,99264.91
2023-07-05T08:39:27.547Z,99266.99
2023-07-05T08:42:01.934Z,99266.33
2023-07-05T08:45:21.529Z,99265.90
2023-07-05T08:47:55.384Z,99257.88
2023-07-05T08:50:36.697Z,99253.86
2023-07-05T08:53:13.609Z,99248.04
2023-07-05T08:55:49.019Z,99256.30
2023-07-05T08:58:45.936Z,99258.69
2023-07-05T09:01:27.031Z,99255.23
2023-07-05T09:03:57.649Z,99258.08
2023-07-05T09:06:29.733Z,99260.45
2023-07-05T09:09:13.657Z,99256.92
2023-07-05T09:11:51.724Z,99258.03
2023-07-05T09:15:07.132Z,99261.77
2023-07-05T09:17:48.517Z,99260.83
2023-07-05T09:20:25.897Z,99257.27
2023-07-05T09:22:56.730Z,99256.73
2023-07-05T09:25:40.534Z,99250.51
2023-07-05T09:28:24.947Z,99248.77
2023-07-05T09:30:54.368Z,99249.84
2023-07-05T09:33:35.423Z,99247.08
2023-07-05T09:36:09.551Z,99241.98
2023-07-05T09:38:44.847Z,99235.27
2023-07-05T09:41:34.828Z,99233.12
2023-07-05T09:44:06.033Z,99221.13
2023-07-05T09:46:37.985Z,99221.91
2023-07-05T09:49:15.488Z,99220.84
2023-07-05T09:51:46.456Z,99214.84
2023-07-05T09:54:32.913Z,99215.52
2023-07-05T09:57:13.853Z,99217.25
2023-07-05T09:59:42.521Z,99213.73
2023-07-05T10:02:11.535Z,99210.86
2023-07-05T10:04:49.685Z,99204.56
2023-07-05T10:07:24.353Z,99201.63
2023-07-05T10:10:00.994Z,99202.16
2023-07-05T10:12:44.384Z,99201.91
2023-07-05T10:15:25.731Z,99205.50
2023-07-05T10:17:59.083Z,99218.05
2023-07-05T10:20:33.092Z,99213.36
2023-07-05T10:23:15.701Z,99221.55
2023-07-05T10:25:53.847Z,99264.65
2023-07-05T10:28:30.847Z,99271.89
2023-07-05T10:31:07.466Z,99230.79
2023-07-05T10:33:42.358Z,99222.73
2023-07-05T10:36:11.530Z,99227.64
2023-07-05T10:38:44.955Z,99226.73
2023-07-05T10:41:31.512Z,99222.31
2023-07-05T10:44:32.393Z,99220.39
2023-07-05T10:47:01.295Z,99214.98
2023-07-05T10:49:32.273Z,99216.39
2023-07-05T10:52:06.686Z,99209.64
2023-07-05T10:55:03.769Z,99207.84
2023-07-05T10:57:39.873Z,99203.42
2023-07-05T11:00:39.124Z,99203.56
2023-07-05T11:03:28.111Z,99211.67
2023-07-05T11:06:00.059Z,99226.92
2023-07-05T11:08:40.710Z,99231.90
2023-07-05T11:11:33.106Z,99216.10
2023-07-05T11:14:04.826Z,99207.27
2023-07-05T11:16:35.314Z,99204.38
2023-07-05T11:19:10.480Z,99199.30
2023-07-05T11:21:40.416Z,99186.55
2023-07-05T11:24:10.874Z,99185.27
2023-07-05T11:26:55.315Z,99180.40
2023-07-05T11:29:29.947Z,99174.07
2023-07-05T11:32:04.900Z,99167.29
2023-07-05T11:34:34.773Z,99157.95
2023-07-05T11:37:14.589Z,99151.64
2023-07-05T11:39:44.034Z,99148.95
2023-07-05T11:42:18.003Z,99150.91
2023-07-05T11:45:09.424Z,99150.87
2023-07-05T11:47:45.952Z,99146.63
2023-07-05T11:50:34.905Z,99151.20
2023-07-05T11:53:14.451Z,99153.89
2023-07-05T11:55:43.495Z,99154.84
2023-07-05T11:58:28.665Z,99143.55
2023-07-05T12:01:01.654Z,99127.73
2023-07-05T12:03:41.331Z,99119.05
2023-07-05T12:06:21.099Z,99116.06
2023-07-05T12:08:56.490Z,99111.67
2023-07-05T12:11:36.533Z,99101.70
2023-07-05T12:14:11.241Z,99095.26
2023-07-05T12:16:40.534Z,99086.02
2023-07-05T12:19:18.555Z,99086.80
2023-07-05T12:22:06.196Z,99093.31
2023-07-05T12:24:44.600Z,99086.55
2023-07-05T12:27:22.531Z,99085.16
2023-07-05T12:29:53.388Z,99082.13
2023-07-05T12:32:25.569Z,99077.49
2023-07-05T12:35:23.751Z,99076.09
2023-07-05T12:37:57.613Z,99069.78
2023-07-05T12:40:34.176Z,99072.29
2023-07-05T12:43:09.825Z,99068.81
2023-07-05T12:45:41.000Z,99068.13
2023-07-05T12:48:30.476Z,99071.07
2023-07-05T12:51:04.544Z,99067.33
2023-07-05T12:53:34.241Z,99065.80
2023-07-05T12:56:30.632Z,99057.06
2023-07-05T12:59:05.527Z,99056.55
2023-07-05T13:01:41.917Z,99052.81
2023-07-05T13:04:16.741Z,99063.52
2023-07-05T13:06:52.758Z,99075.81
2023-07-05T13:09:30.786Z,99077.98
2023-07-05T13:12:01.267Z,99088.49
2023-07-05T13:14:33.387Z,99109.63
2023-07-05T13:17:11.940Z,99126.22
2023-07-05T13:19:49.714Z,99146.58
2023-07-05T13:22:24.279Z,99150.67
2023-07-05T13:24:52.899Z,99151.95
2023-07-05T13:27:30.980Z,99142.89
2023-07-05T13:30:18.519Z,99144.66
2023-07-05T13:32:52.068Z,99141.08
2023-07-05T13:35:22.662Z,99139.39
2023-07-05T13:37:53.143Z,99133.19
2023-07-05T13:40:22.932Z,99139.27
2023-07-05T13:42:54.659Z,99143.29
2023-07-05T13:45:29.860Z,99145.73
2023-07-05T13:48:01.504Z,99144.02
2023-07-05T13:50:33.406Z,99129.19
2023-07-05T13:53:05.411Z,99121.05
2023-07-05T13:55:37.116Z,99113.36
2023-07-05T13:58:08.722Z,99111.50
2023-07-05T14:00:39.079Z,99108.65
2023-07-05T14:03:07.846Z,99109.30
2023-07-05T14:05:36.697Z,99110.66
2023-07-05T14:08:09.684Z,99117.59
2023-07-05T14:10:44.651Z,99118.23
2023-07-05T14:13:21.200Z,99120.28
2023-07-05T14:15:49.862Z,99124.21
2023-07-05T14:18:19.770Z,99128.85
2023-07-05T14:20:58.802Z,99131.39
2023-07-05T14:23:30.619Z,99137.06
2023-07-05T14:26:10.165Z,99135.11
2023-07-05T14:28:39.143Z,99132.25
2023-07-05T14:31:12.637Z,99131.92
2023-07-05T14:33:44.407Z,99125.94
2023-07-05T14:36:14.756Z,99126.38
2023-07-05T14:38:44.225Z,99129.86
2023-07-05T14:41:25.025Z,99122.08
2023-07-05T14:43:55.060Z,99133.69
2023-07-05T14:46:24.353Z,99145.53
2023-07-05T14:48:52.954Z,99156.39
2023-07-05T14:51:26.205Z,99157.72
2023-07-05T14:53:56.866Z,99158.29
2023-07-05T14:56:35.595Z,99158.11
2023-07-05T14:59:19.483Z,99154.48
2023-07-05T15:01:54.159Z,99150.94
2023-07-05T15:04:23.287Z,99157.80
2023-07-05T15:07:03.882Z,99163.48
2023-07-05T15:09:32.322Z,99160.27
2023-07-05T15:12:21.842Z,99151.25
2023-07-05T15:15:00.046Z,99150.82
2023-07-05T15:17:36.604Z,99157.02
2023-07-05T15:20:27.526Z,99161.04
2023-07-05T15:22:57.299Z,99152.73
2023-07-05T15:25:47.849Z,99148.39
2023-07-05T15:28:26.942Z,99149.79
2023-07-05T15:31:15.977Z,99142.81
2023-07-05T15:33:51.352Z,99138.42
2023-07-05T15:36:20.235Z,99137.08
2023-07-05T15:38:49.837Z,99129.30
2023-07-05T15:41:18.364Z,99130.70
2023-07-05T15:44:50.730Z,99129.73
2023-07-05T15:47:32.375Z,99129.23
2023-07-05T15:50:12.230Z,99123.13
2023-07-05T15:56:32.908Z,99128.00
2023-07-05T15:59:48.917Z,99129.61
2023-07-05T16:02:54.382Z,99130.55
2023-07-05T16:05:42.143Z,99135.91
2023-07-05T16:08:12.328Z,99142.13
2023-07-05T16:10:42.160Z,99142.67
2023-07-05T16:13:12.688Z,99153.35
2023-07-05T16:15:42.389Z,99161.63
2023-07-05T16:18:36.740Z,99160.40
2023-07-05T16:21:09.738Z,99165.70
2023-07-05T16:23:59.140Z,99170.52
2023-07-05T16:26:31.179Z,99169.76
2023-07-05T16:32:41.796Z,99177.38
2023-07-05T16:35:24.013Z,99184.89
2023-07-05T16:43:23.317Z,99193.29
2023-07-05T17:14:28.590Z,99250.86
2023-07-05T17:17:44.481Z,99252.77
2023-07-05T17:23:24.247Z,99250.75
2023-07-05T17:26:02.992Z,99250.27
2023-07-05T17:28:47.208Z,99249.13
2023-07-05T17:31:24.353Z,99248.85
2023-07-05T17:33:55.597Z,99254.45
2023-07-05T17:36:25.440Z,99247.86
2023-07-05T17:38:57.988Z,99245.83
2023-07-05T17:41:26.452Z,99251.65
2023-07-05T17:43:55.011Z,99258.12
2023-07-05T17:47:43.525Z,99260.13
2023-07-05T17:50:25.749Z,99271.77
2023-07-05T17:52:54.016Z,99268.35
2023-07-05T17:55:22.476Z,99270.48
2023-07-05T17:57:51.570Z,99272.20
2023-07-05T18:00:21.586Z,99272.32
2023-07-05T18:03:13.449Z,99276.23
2023-07-05T18:05:42.051Z,99282.62
2023-07-05T18:08:18.168Z,99290.30
2023-07-05T18:10:59.719Z,99293.23
2023-07-05T18:13:39.466Z,99298.16
2023-07-05T18:16:13.500Z,99303.73
2023-07-05T18:18:42.570Z,99307.83
2023-07-05T18:21:16.904Z,99311.64
2023-07-05T18:23:48.711Z,99311.17
2023-07-05T18:26:20.156Z,99314.07
2023-07-05T18:33:28.728Z,99327.61
2023-07-05T18:36:07.345Z,99338.05
2023-07-05T18:38:35.800Z,99343.28
2023-07-05T18:41:13.188Z,99350.76
2023-07-05T18:43:41.593Z,99360.14
2023-07-05T18:46:10.964Z,99368.65
2023-07-05T18:48:42.468Z,99378.34
2023-07-05T18:51:11.448Z,99389.83
2023-07-05T18:53:39.674Z,99397.54
2023-07-05T19:00:37.884Z,99402.53
2023-07-05T19:07:44.893Z,99420.99
2023-07-05T19:10:48.975Z,99426.35
2023-07-05T19:13:55.509Z,99431.09
2023-07-05T19:16:41.978Z,99442.53
2023-07-05T19:19:23.789Z,99450.33
2023-07-05T19:22:40.331Z,99455.70
2023-07-05T19:25:15.714Z,99461.58
2023-07-05T19:27:48.091Z,99464.73
2023-07-05T19:30:49.594Z,99474.85
2023-07-05T19:33:20.645Z,99476.56
2023-07-05T19:35:51.443Z,99480.55
2023-07-05T19:38:20.251Z,99485.58
2023-07-05T19:40:55.421Z,99488.41
2023-07-05T19:43:25.585Z,99493.51
2023-07-05T19:45:54.850Z,99495.81
2023-07-05T19:48:23.564Z,99502.55
2023-07-05T19:50:52.291Z,99508.48
2023-07-05T19:53:22.692Z,99508.80
2023-07-05T19:55:52.863Z,99512.23
2023-07-05T19:58:24.371Z,99520.83
2023-07-05T20:00:56.416Z,99521.22
2023-07-05T20:03:27.368Z,99529.29
2023-07-05T20:05:56.948Z,99533.38
2023-07-05T20:08:27.489Z,99539.39
2023-07-05T20:10:57.175Z,99544.36
2023-07-05T20:13:26.235Z,99546.92
2023-07-05T20:15:59.652Z,99547.59
2023-07-05T20:18:28.704Z,99546.40
2023-07-05T20:21:09.007Z,99551.16
2023-07-05T20:23:43.636Z,99559.35
2023-07-05T20:26:15.895Z,99558.09
2023-07-05T20:28:47.538Z,99559.91
2023-07-05T20:31:17.073Z,99563.85
2023-07-05T20:33:49.390Z,99565.16
2023-07-05T20:36:17.885Z,99562.16
2023-07-05T20:38:46.453Z,99565.20
2023-07-05T20:41:15.590Z,99571.38
2023-07-05T20:43:44.417Z,99569.86
2023-07-05T20:46:16.321Z,99574.92
2023-07-05T20:48:48.098Z,99575.22
2023-07-05T20:51:18.693Z,99575.66
2023-07-05T20:53:50.547Z,99576.15
2023-07-05T20:56:30.208Z,99575.21
2023-07-05T20:59:07.875Z,99578.27
2023-07-05T21:01:37.035Z,99583.81
2023-07-05T21:04:05.702Z,99583.00
2023-07-05T21:06:42.496Z,99587.29
2023-07-05T21:09:11.785Z,99587.12
2023-07-05T21:11:40.950Z,99592.58
2023-07-05T21:14:09.484Z,99593.98
2023-07-05T21:16:38.285Z,99596.05
2023-07-05T21:19:10.504Z,99595.33
2023-07-05T21:21:40.346Z,99600.06
2023-07-05T21:24:19.648Z,99600.63
2023-07-05T21:26:48.284Z,99604.91
2023-07-05T21:29:17.171Z,99606.39
2023-07-05T21:31:46.872Z,99610.67
2023-07-05T21:34:18.529Z,99616.77
2023-07-05T21:36:53.640Z,99622.96
2023-07-05T21:39:25.987Z,99625.58
2023-07-05T21:41:57.673Z,99622.45
2023-07-05T21:44:33.643Z,99622.44
2023-07-05T21:47:04.737Z,99626.16
2023-07-05T21:49:33.319Z,99625.08
2023-07-05T21:52:01.709Z,99627.95
2023-07-05T21:54:30.445Z,99629.94
2023-07-05T21:56:58.761Z,99633.96
2023-07-05T21:59:28.661Z,99633.55
2023-07-05T22:02:00.180Z,99631.08
2023-07-05T22:04:29.748Z,99635.96
2023-07-05T22:07:02.526Z,99638.25
2023-07-05T22:09:35.462Z,99641.09
2023-07-05T22:12:12.588Z,99647.73
2023-07-05T22:15:00.476Z,99650.40
2023-07-05T22:17:29.783Z,99651.52
2023-07-05T22:19:58.224Z,99657.43
2023-07-05T22:22:27.985Z,99660.50
2023-07-05T22:24:56.856Z,99663.86
2023-07-05T22:27:25.329Z,99659.97
2023-07-05T22:29:54.194Z,99658.02
2023-07-05T22:32:22.906Z,99659.09
2023-07-05T22:34:51.226Z,99657.56
2023-07-05T22:37:21.604Z,99655.77
2023-07-05T22:39:50.240Z,99660.58
2023-07-05T22:42:23.798Z,99665.77
2023-07-05T22:44:54.295Z,99669.06
2023-07-05T22:47:42.876Z,99669.08
2023-07-05T22:50:12.023Z,99680.39
2023-07-05T22:52:41.056Z,99680.13
2023-07-05T22:55:09.875Z,99678.67
2023-07-05T22:57:50.092Z,99680.21
2023-07-05T23:00:31.271Z,99683.34
2023-07-05T23:03:00.220Z,99684.97
2023-07-05T23:05:30.167Z,99687.16
2023-07-05T23:08:00.666Z,99687.39
2023-07-05T23:10:29.269Z,99686.00
2023-07-05T23:12:57.736Z,99683.65
2023-07-05T23:15:28.543Z,99685.63
2023-07-05T23:18:00.248Z,99679.36
2023-07-05T23:20:31.506Z,99686.10
2023-07-05T23:23:14.657Z,99684.70
2023-07-05T23:25:46.404Z,99683.36
2023-07-05T23:28:27.271Z,99684.69
2023-07-05T23:31:29.809Z,99685.23
2023-07-05T23:33:59.688Z,99685.62
2023-07-05T23:36:34.234Z,99687.73
2023-07-05T23:39:06.776Z,99691.83
2023-07-05T23:41:36.321Z,99696.52
2023-07-05T23:44:07.930Z,99697.31
2023-07-05T23:46:45.156Z,99703.05
2023-07-05T23:49:17.112Z,99700.14
2023-07-05T23:51:54.363Z,99705.98
2023-07-05T23:54:27.875Z,99706.54
2023-07-05T23:57:04.518Z,99711.81
2023-07-05T23:59:35.938Z,99710.39
